Time;durP1;ratioP1;P1;durP2;ratioP2;P2;SDS_P1;SDS_P2;PMS_P1;PMS_P2;Temp;Humidity;BMP_temperature;BMP_pressure;BME280_temperature;BME280_humidity;BME280_pressure;Samples;Min_cycle;Max_cycle;Signal;HPM_P1;HPM_P2
2022/06/10 00:02:15;;;;;;;;;;;;;;;;;;5125989;28;19931;-72
2022/06/10 00:04:41;;;;;;;;;;;;;;;;;;5124077;28;20375;-72
2022/06/10 00:07:07;;;;;;;;;;;;;;;;;;5158398;27;19927;-72
2022/06/10 00:09:33;;;;;;;;;;;;;;;;;;5125030;28;19923;-72
2022/06/10 00:11:59;;;;;;;;;;;;;;;;;;5126033;28;20329;-72
2022/06/10 00:14:25;;;;;;;;;;;;;;;;;;5124578;28;19934;-72
2022/06/10 00:16:51;;;;;;;;;;;;;;;;;;5116547;28;19923;-71
2022/06/10 00:19:17;;;;;;;;;;;;;;;;;;5123806;28;19924;-72
2022/06/10 00:21:43;;;;;;;;;;;;;;;;;;5124184;28;19931;-71
2022/06/10 00:24:09;;;;;;;;;;;;;;;;;;5136661;27;19936;-71
2022/06/10 00:26:35;;;;;;;;;;;;;;;;;;5124809;28;19942;-71
2022/06/10 00:29:01;;;;;;;;;;;;;;;;;;5123703;28;19949;-72
2022/06/10 00:31:27;;;;;;;;;;;;;;;;;;5120536;28;19974;-72
2022/06/10 00:33:53;;;;;;;;;;;;;;;;;;5122180;28;19931;-72
2022/06/10 00:36:19;;;;;;;;;;;;;;;;;;5125641;28;19923;-71
2022/06/10 00:38:46;;;;;;;;;;;;;;;;;;5124502;28;20023;-72
2022/06/10 00:41:12;;;;;;;;;;;;;;;;;;5125602;28;19955;-71
2022/06/10 00:43:38;;;;;;;;;;;;;;;;;;5125724;28;19953;-72
2022/06/10 00:46:04;;;;;;;;;;;;;;;;;;5124727;28;20022;-73
2022/06/10 00:48:30;;;;;;;;;;;;;;;;;;5125501;28;19928;-71
2022/06/10 00:50:56;;;;;;;;;;;;;;;;;;5126832;27;19935;-72
2022/06/10 00:53:22;;;;;;;;;;;;;;;;;;5126753;27;19963;-71
2022/06/10 00:55:48;;;;;;;;;;;;;;;;;;5124041;28;20375;-71
2022/06/10 00:58:14;;;;;;;;;;;;;;;;;;5125433;28;19924;-72
2022/06/10 01:00:40;;;;;;;;;;;;;;;;;;5124682;28;19938;-72
2022/06/10 01:03:06;;;;;;;;;;;;;;;;;;5125170;28;19928;-71
2022/06/10 01:05:32;;;;;;;;;;;;;;;;;;5121205;28;19924;-72
2022/06/10 01:07:58;;;;;;;;;;;;;;;;;;5124081;28;20359;-72
2022/06/10 01:10:24;;;;;;;;;;;;;;;;;;5148965;27;19930;-72
2022/06/10 01:12:50;;;;;;;;;;;;;;;;;;5143110;27;19964;-72
2022/06/10 01:15:16;;;;;;;;;;;;;;;;;;5124653;28;19924;-72
2022/06/10 01:17:42;;;;;;;;;;;;;;;;;;5123977;28;19924;-72
2022/06/10 01:20:08;;;;;;;;;;;;;;;;;;5124372;28;19927;-72
2022/06/10 01:22:35;;;;;;;;;;;;;;;;;;5124114;28;19924;-72
2022/06/10 01:25:01;;;;;;;;;;;;;;;;;;5124119;28;19985;-72
2022/06/10 01:30:12;;;;;;;;;;;;;;;;;;5125271;28;20297;-72
2022/06/10 01:32:37;;;;;;;;;;;;;;;;;;5123768;28;19923;-72
2022/06/10 01:35:03;;;;;;;;;;;;;;;;;;5122184;28;20059;-72
2022/06/10 01:37:29;;;;;;;;;;;;;;;;;;5125370;28;19946;-72
2022/06/10 01:39:55;;;;;;;;;;;;;;;;;;5124713;28;19923;-72
2022/06/10 01:42:22;;;;;;;;;;;;;;;;;;5125268;28;19924;-72
2022/06/10 01:44:48;;;;;;;;;;;;;;;;;;5126085;28;19953;-72
2022/06/10 01:47:15;;;;;;;;;;;;;;;;;;5129164;28;19924;-72
2022/06/10 01:49:41;;;;;;;;;;;;;;;;;;5128877;28;19928;-72
2022/06/10 01:52:07;;;;;;;;;;;;;;;;;;5131105;27;19923;-72
2022/06/10 01:54:33;;;;;;;;;;;;;;;;;;5130717;27;19930;-73
2022/06/10 01:56:59;;;;;;;;;;;;;;;;;;5127895;28;19924;-73
2022/06/10 01:59:25;;;;;;;;;;;;;;;;;;5129006;28;20295;-73
2022/06/10 02:01:51;;;;;;;;;;;;;;;;;;5127550;28;19958;-73
2022/06/10 02:04:17;;;;;;;;;;;;;;;;;;5128508;28;19923;-72
2022/06/10 02:06:43;;;;;;;;;;;;;;;;;;5125818;28;19924;-73
2022/06/10 02:09:09;;;;;;;;;;;;;;;;;;5127346;28;19983;-73
2022/06/10 02:11:35;;;;;;;;;;;;;;;;;;5127287;28;20344;-73
2022/06/10 02:14:01;;;;;;;;;;;;;;;;;;5128586;27;19924;-73
2022/06/10 02:16:27;;;;;;;;;;;;;;;;;;5128508;28;20300;-73
2022/06/10 02:18:53;;;;;;;;;;;;;;;;;;5125539;28;19924;-73
2022/06/10 02:21:19;;;;;;;;;;;;;;;;;;5127030;28;19924;-73
2022/06/10 02:23:45;;;;;;;;;;;;;;;;;;5129750;27;19923;-73
2022/06/10 02:26:11;;;;;;;;;;;;;;;;;;5128401;28;19927;-73
2022/06/10 02:28:37;;;;;;;;;;;;;;;;;;5128190;28;19930;-72
2022/06/10 02:31:03;;;;;;;;;;;;;;;;;;5124386;28;19927;-73
2022/06/10 02:33:29;;;;;;;;;;;;;;;;;;5126725;28;20409;-72
2022/06/10 02:35:56;;;;;;;;;;;;;;;;;;5127923;28;19970;-72
2022/06/10 02:38:22;;;;;;;;;;;;;;;;;;5126905;28;19924;-73
2022/06/10 02:40:48;;;;;;;;;;;;;;;;;;5127369;28;19931;-73
2022/06/10 02:43:14;;;;;;;;;;;;;;;;;;5123895;27;19920;-73
2022/06/10 02:45:40;;;;;;;;;;;;;;;;;;5128077;28;19931;-73
2022/06/10 02:48:06;;;;;;;;;;;;;;;;;;5124966;28;20022;-73
2022/06/10 02:50:32;;;;;;;;;;;;;;;;;;5130308;27;19927;-72
2022/06/10 02:52:58;;;;;;;;;;;;;;;;;;5127708;28;19930;-73
2022/06/10 02:55:24;;;;;;;;;;;;;;;;;;5126967;28;19924;-72
2022/06/10 03:03:21;;;;;;;;;;;;;;;;;;5113545;28;19966;-73
2022/06/10 03:05:47;;;;;;;;;;;;;;;;;;5126558;28;19927;-72
2022/06/10 03:08:13;;;;;;;;;;;;;;;;;;5127474;28;19924;-73
2022/06/10 03:10:39;;;;;;;;;;;;;;;;;;5133678;27;19934;-73
2022/06/10 03:13:05;;;;;;;;;;;;;;;;;;5125806;28;19931;-72
2022/06/10 03:15:30;;;;;;;;;;;;;;;;;;5126237;28;19928;-73
2022/06/10 03:17:56;;;;;;;;;;;;;;;;;;5127406;28;19930;-73
2022/06/10 03:20:22;;;;;;;;;;;;;;;;;;5127130;28;19935;-72
2022/06/10 03:22:48;;;;;;;;;;;;;;;;;;5127210;28;19924;-72
2022/06/10 03:25:14;;;;;;;;;;;;;;;;;;5159577;27;19919;-72
2022/06/10 03:27:40;;;;;;;;;;;;;;;;;;5127141;28;19935;-72
2022/06/10 03:30:06;;;;;;;;;;;;;;;;;;5126999;28;19928;-72
2022/06/10 03:32:32;;;;;;;;;;;;;;;;;;5125741;28;20018;-72
2022/06/10 03:34:58;;;;;;;;;;;;;;;;;;5126917;28;19924;-72
2022/06/10 03:37:24;;;;;;;;;;;;;;;;;;5141727;27;19924;-72
2022/06/10 03:39:50;;;;;;;;;;;;;;;;;;5137671;27;20418;-72
2022/06/10 03:42:16;;;;;;;;;;;;;;;;;;5127755;27;20065;-72
2022/06/10 03:44:42;;;;;;;;;;;;;;;;;;5125735;28;20437;-72
2022/06/10 03:47:08;;;;;;;;;;;;;;;;;;5125380;28;19923;-72
2022/06/10 03:49:34;;;;;;;;;;;;;;;;;;5125969;28;19923;-72
2022/06/10 03:52:00;;;;;;;;;;;;;;;;;;5125114;28;19930;-72
2022/06/10 03:54:26;;;;;;;;;;;;;;;;;;5126574;28;19945;-72
2022/06/10 03:56:52;;;;;;;;;;;;;;;;;;5125244;28;19970;-72
2022/06/10 03:59:18;;;;;;;;;;;;;;;;;;5142163;27;19919;-72
2022/06/10 04:01:44;;;;;;;;;;;;;;;;;;5123484;28;20309;-72
2022/06/10 04:04:10;;;;;;;;;;;;;;;;;;5125716;28;20373;-72
2022/06/10 04:06:36;;;;;;;;;;;;;;;;;;5125637;28;19924;-72
2022/06/10 04:09:02;;;;;;;;;;;;;;;;;;5132453;27;19954;-72
2022/06/10 04:11:28;;;;;;;;;;;;;;;;;;5117615;27;19919;-72
2022/06/10 04:13:53;;;;;;;;;;;;;;;;;;5124383;28;19977;-72
2022/06/10 04:16:19;;;;;;;;;;;;;;;;;;5124904;28;19946;-72
2022/06/10 04:18:45;;;;;;;;;;;;;;;;;;5126281;28;19934;-72
2022/06/10 04:21:11;;;;;;;;;;;;;;;;;;5122732;28;20311;-72
2022/06/10 04:23:37;;;;;;;;;;;;;;;;;;5126199;28;19959;-72
2022/06/10 04:26:03;;;;;;;;;;;;;;;;;;5126010;28;19924;-72
2022/06/10 04:28:29;;;;;;;;;;;;;;;;;;5124535;28;19983;-72
2022/06/10 04:30:55;;;;;;;;;;;;;;;;;;5124675;28;19924;-72
2022/06/10 04:33:21;;;;;;;;;;;;;;;;;;5125835;28;19974;-72
2022/06/10 04:35:47;;;;;;;;;;;;;;;;;;5125894;28;19927;-73
2022/06/10 04:38:13;;;;;;;;;;;;;;;;;;5125117;28;20068;-72
2022/06/10 04:40:39;;;;;;;;;;;;;;;;;;5133952;27;20375;-72
2022/06/10 04:43:05;;;;;;;;;;;;;;;;;;5125213;28;19923;-72
2022/06/10 04:45:31;;;;;;;;;;;;;;;;;;5125738;28;19995;-72
2022/06/10 04:47:58;;;;;;;;;;;;;;;;;;5124415;28;19924;-72
2022/06/10 04:50:24;;;;;;;;;;;;;;;;;;5125655;28;19923;-72
2022/06/10 04:52:51;;;;;;;;;;;;;;;;;;5125728;28;19993;-72
2022/06/10 04:55:17;;;;;;;;;;;;;;;;;;5123414;28;19962;-72
2022/06/10 04:57:43;;;;;;;;;;;;;;;;;;5124219;28;19950;-72
2022/06/10 05:00:09;;;;;;;;;;;;;;;;;;5123372;28;19923;-72
2022/06/10 05:02:35;;;;;;;;;;;;;;;;;;5125605;28;19924;-72
2022/06/10 05:05:01;;;;;;;;;;;;;;;;;;5125448;28;19923;-72
2022/06/10 05:07:27;;;;;;;;;;;;;;;;;;5121492;28;19923;-72
2022/06/10 05:09:53;;;;;;;;;;;;;;;;;;5124504;28;19931;-72
2022/06/10 05:12:19;;;;;;;;;;;;;;;;;;5125424;28;19924;-72
2022/06/10 05:14:45;;;;;;;;;;;;;;;;;;5124255;28;19976;-72
2022/06/10 05:17:11;;;;;;;;;;;;;;;;;;5112063;28;19928;-72
2022/06/10 05:19:37;;;;;;;;;;;;;;;;;;5125025;28;19930;-73
2022/06/10 05:22:03;;;;;;;;;;;;;;;;;;5123233;28;19932;-72
2022/06/10 05:24:29;;;;;;;;;;;;;;;;;;5127085;28;19928;-72
2022/06/10 05:26:55;;;;;;;;;;;;;;;;;;5129428;28;19977;-72
2022/06/10 05:29:21;;;;;;;;;;;;;;;;;;5128169;28;19939;-72
2022/06/10 05:31:46;;;;;;;;;;;;;;;;;;5121751;28;19935;-73
2022/06/10 05:36:57;;;;;;;;;;;;;;;;;;5122912;28;20248;-72
2022/06/10 05:39:23;;;;;;;;;;;;;;;;;;5131213;27;19924;-72
2022/06/10 05:42:08;;;;;;;;;;;;;;;;;;5128452;28;19932;-72
2022/06/10 05:44:34;;;;;;;;;;;;;;;;;;5160185;27;19924;-72
2022/06/10 05:47:00;;;;;;;;;;;;;;;;;;5156747;27;19987;-72
2022/06/10 05:49:26;;;;;;;;;;;;;;;;;;5156496;27;19930;-72
2022/06/10 05:51:52;;;;;;;;;;;;;;;;;;5131352;27;19923;-72
2022/06/10 05:54:18;;;;;;;;;;;;;;;;;;5136231;27;20093;-72
2022/06/10 05:56:44;;;;;;;;;;;;;;;;;;5126265;28;19924;-73
2022/06/10 05:59:10;;;;;;;;;;;;;;;;;;5125730;28;20022;-72
2022/06/10 06:01:36;;;;;;;;;;;;;;;;;;5129014;28;19973;-72
2022/06/10 06:04:02;;;;;;;;;;;;;;;;;;5127422;28;20014;-72
2022/06/10 06:06:28;;;;;;;;;;;;;;;;;;5128054;28;19931;-72
2022/06/10 06:08:54;;;;;;;;;;;;;;;;;;5128661;28;19924;-72
2022/06/10 06:11:20;;;;;;;;;;;;;;;;;;5127256;28;19935;-72
2022/06/10 06:13:46;;;;;;;;;;;;;;;;;;5120560;28;19924;-72
2022/06/10 06:16:12;;;;;;;;;;;;;;;;;;5126762;28;20011;-72
2022/06/10 06:18:38;;;;;;;;;;;;;;;;;;5128792;28;19924;-72
2022/06/10 06:21:04;;;;;;;;;;;;;;;;;;5128320;27;19945;-72
2022/06/10 06:23:29;;;;;;;;;;;;;;;;;;5135303;27;19923;-72
2022/06/10 06:25:55;;;;;;;;;;;;;;;;;;5127112;28;19924;-72
2022/06/10 06:28:21;;;;;;;;;;;;;;;;;;5139183;27;19924;-73
2022/06/10 06:30:47;;;;;;;;;;;;;;;;;;5127406;28;19924;-73
2022/06/10 06:33:13;;;;;;;;;;;;;;;;;;5127898;28;19924;-73
2022/06/10 06:35:39;;;;;;;;;;;;;;;;;;5128093;28;19931;-73
2022/06/10 06:38:05;;;;;;;;;;;;;;;;;;5126904;28;19924;-73
2022/06/10 06:40:31;;;;;;;;;;;;;;;;;;5128060;28;20397;-72
2022/06/10 06:42:57;;;;;;;;;;;;;;;;;;5128242;28;19930;-73
2022/06/10 06:45:23;;;;;;;;;;;;;;;;;;5126453;28;19930;-73
2022/06/10 06:47:49;;;;;;;;;;;;;;;;;;5128168;28;19923;-73
2022/06/10 06:50:15;;;;;;;;;;;;;;;;;;5126541;28;19924;-73
2022/06/10 06:52:41;;;;;;;;;;;;;;;;;;5126486;28;19920;-74
2022/06/10 06:55:07;;;;;;;;;;;;;;;;;;5127469;28;19975;-73
2022/06/10 06:57:33;;;;;;;;;;;;;;;;;;5132381;27;19924;-73
2022/06/10 07:00:06;;;;;;;;;;;;;;;;;;5141130;27;19980;-73
2022/06/10 07:02:32;;;;;;;;;;;;;;;;;;5132089;27;19924;-73
2022/06/10 07:04:58;;;;;;;;;;;;;;;;;;5127414;28;19945;-72
2022/06/10 07:07:24;;;;;;;;;;;;;;;;;;5126320;28;19924;-73
2022/06/10 07:09:50;;;;;;;;;;;;;;;;;;5127247;28;20451;-73
2022/06/10 07:12:16;;;;;;;;;;;;;;;;;;5127188;28;20000;-73
2022/06/10 07:14:42;;;;;;;;;;;;;;;;;;5125949;28;19928;-73
2022/06/10 07:17:08;;;;;;;;;;;;;;;;;;5127487;28;19969;-73
2022/06/10 07:19:34;;;;;;;;;;;;;;;;;;5126638;28;19972;-74
2022/06/10 07:22:00;;;;;;;;;;;;;;;;;;5125728;28;19927;-73
2022/06/10 07:24:26;;;;;;;;;;;;;;;;;;5125793;28;20084;-73
2022/06/10 07:26:52;;;;;;;;;;;;;;;;;;5129922;27;19923;-73
2022/06/10 07:29:18;;;;;;;;;;;;;;;;;;5135295;27;19932;-72
2022/06/10 07:31:45;;;;;;;;;;;;;;;;;;5126760;28;19919;-72
2022/06/10 07:34:11;;;;;;;;;;;;;;;;;;5129636;27;19923;-73
2022/06/10 07:36:37;;;;;;;;;;;;;;;;;;5130373;27;19924;-74
2022/06/10 07:39:03;;;;;;;;;;;;;;;;;;5125357;28;19931;-73
2022/06/10 07:44:14;;;;;;;;;;;;;;;;;;5125472;28;20411;-74
2022/06/10 07:46:40;;;;;;;;;;;;;;;;;;5153699;27;20358;-73
2022/06/10 07:49:06;;;;;;;;;;;;;;;;;;5125387;28;19927;-74
2022/06/10 07:51:32;;;;;;;;;;;;;;;;;;5125824;28;19934;-73
2022/06/10 07:53:58;;;;;;;;;;;;;;;;;;5159509;27;19931;-73
2022/06/10 07:56:24;;;;;;;;;;;;;;;;;;5128189;27;19966;-73
2022/06/10 07:58:50;;;;;;;;;;;;;;;;;;5132301;27;19938;-73
2022/06/10 08:01:16;;;;;;;;;;;;;;;;;;5127699;27;19934;-74
2022/06/10 08:03:42;;;;;;;;;;;;;;;;;;5144353;27;19923;-73
2022/06/10 08:06:08;;;;;;;;;;;;;;;;;;5127028;27;19976;-73
2022/06/10 08:08:34;;;;;;;;;;;;;;;;;;5126482;28;19961;-73
2022/06/10 08:11:00;;;;;;;;;;;;;;;;;;5125750;28;20381;-74
2022/06/10 08:13:26;;;;;;;;;;;;;;;;;;5126275;28;19924;-73
2022/06/10 08:15:52;;;;;;;;;;;;;;;;;;5110340;28;19924;-73
2022/06/10 08:18:18;;;;;;;;;;;;;;;;;;5128009;27;20002;-73
2022/06/10 08:23:29;;;;;;;;;;;;;;;;;;5118566;28;19974;-70
2022/06/10 08:25:55;;;;;;;;;;;;;;;;;;5120426;28;20006;-69
2022/06/10 08:28:21;;;;;;;;;;;;;;;;;;5121355;28;19935;-66
2022/06/10 08:30:47;;;;;;;;;;;;;;;;;;5128010;27;19931;-66
2022/06/10 08:33:13;;;;;;;;;;;;;;;;;;5122078;28;19959;-66
2022/06/10 08:35:39;;;;;;;;;;;;;;;;;;5127735;27;19931;-65
2022/06/10 08:38:05;;;;;;;;;;;;;;;;;;5123898;27;19924;-66
2022/06/10 08:40:31;;;;;;;;;;;;;;;;;;5121154;28;19927;-65
2022/06/10 08:42:57;;;;;;;;;;;;;;;;;;5125745;28;20302;-65
2022/06/10 08:45:23;;;;;;;;;;;;;;;;;;5123690;28;19935;-65
2022/06/10 08:47:49;;;;;;;;;;;;;;;;;;5125040;28;19927;-65
2022/06/10 08:56:22;;;;;;;;;;;;;;;;;;5124090;27;19931;-65
2022/06/10 08:58:48;;;;;;;;;;;;;;;;;;5127922;27;19931;-65
2022/06/10 09:01:14;;;;;;;;;;;;;;;;;;5125195;28;19995;-65
2022/06/10 09:03:40;;;;;;;;;;;;;;;;;;5121243;28;19963;-65
2022/06/10 09:06:06;;;;;;;;;;;;;;;;;;5118545;28;19928;-65
2022/06/10 09:08:32;;;;;;;;;;;;;;;;;;5120831;28;19983;-64
2022/06/10 09:10:58;;;;;;;;;;;;;;;;;;5119375;28;19930;-65
2022/06/10 09:13:24;;;;;;;;;;;;;;;;;;5124826;28;19924;-65
2022/06/10 09:15:50;;;;;;;;;;;;;;;;;;5114558;28;19931;-65
2022/06/10 09:18:16;;;;;;;;;;;;;;;;;;5122303;28;19954;-65
2022/06/10 09:20:42;;;;;;;;;;;;;;;;;;5117864;28;19995;-65
2022/06/10 09:23:08;;;;;;;;;;;;;;;;;;5119118;27;19935;-65
2022/06/10 09:25:34;;;;;;;;;;;;;;;;;;5147953;27;19924;-65
2022/06/10 09:28:00;;;;;;;;;;;;;;;;;;5114463;28;19959;-65
2022/06/10 09:30:26;;;;;;;;;;;;;;;;;;5121590;28;20559;-64
2022/06/10 09:32:52;;;;;;;;;;;;;;;;;;5111536;28;19920;-64
2022/06/10 09:35:19;;;;;;;;;;;;;;;;;;5116061;28;19924;-64
2022/06/10 09:37:44;;;;;;;;;;;;;;;;;;5118644;28;19934;-64
2022/06/10 09:42:55;;;;;;;;;;;;;;;;;;5116726;28;19924;-63
2022/06/10 09:45:22;;;;;;;;;;;;;;;;;;5122377;28;19920;-63
2022/06/10 09:47:48;;;;;;;;;;;;;;;;;;5119663;28;19963;-63
2022/06/10 09:50:14;;;;;;;;;;;;;;;;;;5119716;28;19931;-64
2022/06/10 09:52:40;;;;;;;;;;;;;;;;;;5121458;28;19932;-63
2022/06/10 09:55:07;;;;;;;;;;;;;;;;;;5116186;28;19978;-65
2022/06/10 09:57:33;;;;;;;;;;;;;;;;;;5121139;28;19931;-64
2022/06/10 09:59:58;;;;;;;;;;;;;;;;;;5117057;28;19924;-66
2022/06/10 10:02:25;;;;;;;;;;;;;;;;;;5115049;28;19955;-65
2022/06/10 10:04:51;;;;;;;;;;;;;;;;;;5125343;27;19924;-65
2022/06/10 10:07:17;;;;;;;;;;;;;;;;;;5125995;27;19953;-65
2022/06/10 10:09:43;;;;;;;;;;;;;;;;;;5120194;27;19924;-64
2022/06/10 10:12:09;;;;;;;;;;;;;;;;;;5118187;27;19932;-65
2022/06/10 10:14:35;;;;;;;;;;;;;;;;;;5117210;27;19927;-64
2022/06/10 10:17:01;;;;;;;;;;;;;;;;;;5116843;27;20022;-63
2022/06/10 10:19:27;;;;;;;;;;;;;;;;;;5150579;27;19945;-65
2022/06/10 10:21:52;;;;;;;;;;;;;;;;;;5116262;27;19985;-65
2022/06/10 10:24:18;;;;;;;;;;;;;;;;;;5153711;27;19931;-64
2022/06/10 10:26:44;;;;;;;;;;;;;;;;;;5125185;27;20015;-66
2022/06/10 10:29:11;;;;;;;;;;;;;;;;;;5122195;27;20379;-64
2022/06/10 10:31:37;;;;;;;;;;;;;;;;;;5127621;27;19924;-62
2022/06/10 10:34:03;;;;;;;;;;;;;;;;;;5129408;27;19996;-65
2022/06/10 10:36:32;;;;;;;;;;;;;;;;;;5113153;28;19932;-66
2022/06/10 10:38:58;;;;;;;;;;;;;;;;;;5125653;27;19924;-63
2022/06/10 10:41:24;;;;;;;;;;;;;;;;;;5127412;27;19943;-64
2022/06/10 10:43:50;;;;;;;;;;;;;;;;;;5122619;27;19927;-64
2022/06/10 10:46:16;;;;;;;;;;;;;;;;;;5125474;27;19932;-64
2022/06/10 10:48:42;;;;;;;;;;;;;;;;;;5123108;27;19923;-65
2022/06/10 10:51:08;;;;;;;;;;;;;;;;;;5121858;27;20002;-63
2022/06/10 10:53:34;;;;;;;;;;;;;;;;;;5122930;27;19924;-63
2022/06/10 10:56:00;;;;;;;;;;;;;;;;;;5120545;27;19935;-65
2022/06/10 10:58:28;;;;;;;;;;;;;;;;;;5121562;27;19935;-63
2022/06/10 11:00:54;;;;;;;;;;;;;;;;;;5121398;27;20018;-66
2022/06/10 11:03:19;;;;;;;;;;;;;;;;;;5126055;27;19920;-65
2022/06/10 11:05:45;;;;;;;;;;;;;;;;;;5120332;27;19938;-65
2022/06/10 11:08:11;;;;;;;;;;;;;;;;;;5116492;27;19924;-65
2022/06/10 11:10:37;;;;;;;;;;;;;;;;;;5118992;28;19924;-64
2022/06/10 11:13:03;;;;;;;;;;;;;;;;;;5125014;27;19930;-65
2022/06/10 11:15:29;;;;;;;;;;;;;;;;;;5121590;27;19959;-63
2022/06/10 11:17:55;;;;;;;;;;;;;;;;;;5118635;27;19977;-63
2022/06/10 11:20:21;;;;;;;;;;;;;;;;;;5119430;27;20368;-63
2022/06/10 11:22:47;;;;;;;;;;;;;;;;;;5121109;27;19995;-61
2022/06/10 11:25:16;;;;;;;;;;;;;;;;;;5119471;27;19931;-62
2022/06/10 11:27:42;;;;;;;;;;;;;;;;;;5118479;27;19923;-62
2022/06/10 11:30:08;;;;;;;;;;;;;;;;;;5121736;27;19988;-61
2022/06/10 11:32:34;;;;;;;;;;;;;;;;;;5119452;27;19924;-62
2022/06/10 11:35:02;;;;;;;;;;;;;;;;;;5120887;27;19932;-65
2022/06/10 11:37:28;;;;;;;;;;;;;;;;;;5122531;27;20003;-61
2022/06/10 11:39:56;;;;;;;;;;;;;;;;;;5118419;28;19939;-62
2022/06/10 11:42:22;;;;;;;;;;;;;;;;;;5117676;28;19993;-65
2022/06/10 11:44:48;;;;;;;;;;;;;;;;;;5120291;27;20419;-64
2022/06/10 11:47:14;;;;;;;;;;;;;;;;;;5115985;27;19943;-65
2022/06/10 11:49:40;;;;;;;;;;;;;;;;;;5122833;27;19979;-64
2022/06/10 11:52:06;;;;;;;;;;;;;;;;;;5122790;27;19950;-67
2022/06/10 11:54:34;;;;;;;;;;;;;;;;;;5125134;27;19924;-66
2022/06/10 11:59:45;;;;;;;;;;;;;;;;;;5109209;28;19935;-66
2022/06/10 12:02:12;;;;;;;;;;;;;;;;;;5120045;27;20014;-66
2022/06/10 12:04:40;;;;;;;;;;;;;;;;;;5122289;28;20323;-63
2022/06/10 12:07:06;;;;;;;;;;;;;;;;;;5114609;27;19934;-62
2022/06/10 12:09:32;;;;;;;;;;;;;;;;;;5126472;27;19928;-63
2022/06/10 12:11:58;;;;;;;;;;;;;;;;;;5119054;27;20352;-64
2022/06/10 12:14:25;;;;;;;;;;;;;;;;;;5130311;27;19932;-63
2022/06/10 12:16:51;;;;;;;;;;;;;;;;;;5129240;27;19923;-63
2022/06/10 12:19:20;;;;;;;;;;;;;;;;;;5119536;27;19926;-62
2022/06/10 12:21:46;;;;;;;;;;;;;;;;;;5118260;27;19936;-64
2022/06/10 12:24:12;;;;;;;;;;;;;;;;;;5148128;27;20018;-63
2022/06/10 12:26:38;;;;;;;;;;;;;;;;;;5113486;27;19931;-63
2022/06/10 12:29:04;;;;;;;;;;;;;;;;;;5116909;27;19962;-63
2022/06/10 12:31:31;;;;;;;;;;;;;;;;;;5114586;27;20370;-62
2022/06/10 12:33:56;;;;;;;;;;;;;;;;;;5113697;28;19924;-62
2022/06/10 12:36:22;;;;;;;;;;;;;;;;;;5116700;27;19924;-62
2022/06/10 12:38:48;;;;;;;;;;;;;;;;;;5113563;27;19928;-62
2022/06/10 12:41:14;;;;;;;;;;;;;;;;;;5116637;27;19930;-64
2022/06/10 12:43:40;;;;;;;;;;;;;;;;;;5123446;27;19971;-63
2022/06/10 12:46:06;;;;;;;;;;;;;;;;;;5126259;28;20391;-62
2022/06/10 12:48:32;;;;;;;;;;;;;;;;;;5150986;27;19953;-63
2022/06/10 12:50:58;;;;;;;;;;;;;;;;;;5115446;27;20019;-64
2022/06/10 12:53:24;;;;;;;;;;;;;;;;;;5122784;27;19935;-62
2022/06/10 12:55:50;;;;;;;;;;;;;;;;;;5124263;28;20212;-64
2022/06/10 12:58:16;;;;;;;;;;;;;;;;;;5126685;28;19923;-64
2022/06/10 13:00:42;;;;;;;;;;;;;;;;;;5126819;28;19969;-64
2022/06/10 13:03:08;;;;;;;;;;;;;;;;;;5130723;28;20030;-65
2022/06/10 13:05:34;;;;;;;;;;;;;;;;;;5116437;28;20045;-64
2022/06/10 13:08:00;;;;;;;;;;;;;;;;;;5125157;27;19931;-67
2022/06/10 13:10:26;;;;;;;;;;;;;;;;;;5123755;28;19953;-64
2022/06/10 13:12:53;;;;;;;;;;;;;;;;;;5116350;28;19991;-65
2022/06/10 13:15:19;;;;;;;;;;;;;;;;;;5117458;28;19951;-65
2022/06/10 13:17:45;;;;;;;;;;;;;;;;;;5124435;28;19984;-66
2022/06/10 13:20:11;;;;;;;;;;;;;;;;;;5127637;28;19970;-65
2022/06/10 13:22:37;;;;;;;;;;;;;;;;;;5125610;28;19924;-67
2022/06/10 13:25:03;;;;;;;;;;;;;;;;;;5115550;28;19923;-67
2022/06/10 13:27:29;;;;;;;;;;;;;;;;;;5115525;28;19945;-67
2022/06/10 13:29:55;;;;;;;;;;;;;;;;;;5124027;28;20039;-66
2022/06/10 13:32:21;;;;;;;;;;;;;;;;;;5124369;28;19924;-68
2022/06/10 13:34:47;;;;;;;;;;;;;;;;;;5122386;27;20064;-69
2022/06/10 13:37:13;;;;;;;;;;;;;;;;;;5125571;28;19934;-68
2022/06/10 13:39:39;;;;;;;;;;;;;;;;;;5127008;27;19932;-66
2022/06/10 13:42:05;;;;;;;;;;;;;;;;;;5121860;28;19950;-69
2022/06/10 13:44:31;;;;;;;;;;;;;;;;;;5127273;27;19924;-67
2022/06/10 13:46:57;;;;;;;;;;;;;;;;;;5122863;27;19924;-62
2022/06/10 13:52:08;;;;;;;;;;;;;;;;;;5114532;28;19924;-67
2022/06/10 13:54:34;;;;;;;;;;;;;;;;;;5125486;27;19930;-65
2022/06/10 13:57:00;;;;;;;;;;;;;;;;;;5115543;28;20403;-64
2022/06/10 13:59:29;;;;;;;;;;;;;;;;;;5116395;27;19938;-64
2022/06/10 14:01:55;;;;;;;;;;;;;;;;;;5117198;27;19924;-63
2022/06/10 14:04:22;;;;;;;;;;;;;;;;;;5116595;27;19959;-63
2022/06/10 14:06:48;;;;;;;;;;;;;;;;;;5129416;27;20038;-63
2022/06/10 14:09:14;;;;;;;;;;;;;;;;;;5119380;27;19959;-65
2022/06/10 14:11:40;;;;;;;;;;;;;;;;;;5120762;28;19941;-66
2022/06/10 14:14:06;;;;;;;;;;;;;;;;;;5120294;27;19967;-73
2022/06/10 14:16:32;;;;;;;;;;;;;;;;;;5119136;27;20403;-62
2022/06/10 14:19:00;;;;;;;;;;;;;;;;;;5131942;27;19931;-64
2022/06/10 14:21:26;;;;;;;;;;;;;;;;;;5135032;27;19920;-65
2022/06/10 14:23:52;;;;;;;;;;;;;;;;;;5127757;27;19930;-65
2022/06/10 14:26:18;;;;;;;;;;;;;;;;;;5124523;27;19932;-65
2022/06/10 14:28:44;;;;;;;;;;;;;;;;;;5125507;27;19969;-65
2022/06/10 14:31:10;;;;;;;;;;;;;;;;;;5126555;28;19991;-61
2022/06/10 14:33:37;;;;;;;;;;;;;;;;;;5125672;28;19923;-61
2022/06/10 14:36:03;;;;;;;;;;;;;;;;;;5126849;28;19931;-62
2022/06/10 14:38:30;;;;;;;;;;;;;;;;;;5120725;28;20027;-61
2022/06/10 14:40:56;;;;;;;;;;;;;;;;;;5124826;27;19924;-61
2022/06/10 14:43:22;;;;;;;;;;;;;;;;;;5127309;28;19923;-61
2022/06/10 14:45:48;;;;;;;;;;;;;;;;;;5150828;27;19923;-61
2022/06/10 14:48:14;;;;;;;;;;;;;;;;;;5126139;27;20128;-61
2022/06/10 14:50:40;;;;;;;;;;;;;;;;;;5123540;28;20124;-61
2022/06/10 14:53:06;;;;;;;;;;;;;;;;;;5125010;27;19931;-60
2022/06/10 14:55:32;;;;;;;;;;;;;;;;;;5148909;27;20387;-60
2022/06/10 14:57:58;;;;;;;;;;;;;;;;;;5125911;27;19967;-60
2022/06/10 15:00:24;;;;;;;;;;;;;;;;;;5125422;27;19928;-60
2022/06/10 15:02:50;;;;;;;;;;;;;;;;;;5126074;27;19970;-61
2022/06/10 15:08:01;;;;;;;;;;;;;;;;;;5133602;27;20374;-60
2022/06/10 15:10:27;;;;;;;;;;;;;;;;;;5122939;27;19940;-62
2022/06/10 15:12:53;;;;;;;;;;;;;;;;;;5132147;27;19935;-62
2022/06/10 15:15:19;;;;;;;;;;;;;;;;;;5130687;27;19924;-61
2022/06/10 15:17:50;;;;;;;;;;;;;;;;;;5122147;27;19924;-62
2022/06/10 15:20:16;;;;;;;;;;;;;;;;;;5117086;28;19927;-61
2022/06/10 15:22:42;;;;;;;;;;;;;;;;;;5123751;27;19923;-65
2022/06/10 15:25:08;;;;;;;;;;;;;;;;;;5124730;28;20413;-64
2022/06/10 15:27:34;;;;;;;;;;;;;;;;;;5126460;27;19927;-67
2022/06/10 15:30:00;;;;;;;;;;;;;;;;;;5129948;27;19964;-66
2022/06/10 15:32:26;;;;;;;;;;;;;;;;;;5123470;27;19928;-65
2022/06/10 15:43:06;;;;;;;;;;;;;;;;;;5126853;28;19946;-65
2022/06/10 15:45:32;;;;;;;;;;;;;;;;;;5124160;28;19924;-66
2022/06/10 15:47:58;;;;;;;;;;;;;;;;;;5126642;28;19923;-65
2022/06/10 15:50:24;;;;;;;;;;;;;;;;;;5125459;28;19966;-66
2022/06/10 15:52:50;;;;;;;;;;;;;;;;;;5126484;28;19923;-65
2022/06/10 15:58:01;;;;;;;;;;;;;;;;;;5112920;28;19931;-66
2022/06/10 16:00:28;;;;;;;;;;;;;;;;;;5115917;28;19924;-66
2022/06/10 16:02:54;;;;;;;;;;;;;;;;;;5121164;27;19923;-66
2022/06/10 16:05:20;;;;;;;;;;;;;;;;;;5124209;28;19949;-66
2022/06/10 16:07:46;;;;;;;;;;;;;;;;;;5121977;28;19928;-66
2022/06/10 16:10:12;;;;;;;;;;;;;;;;;;5124719;28;19931;-66
2022/06/10 16:15:23;;;;;;;;;;;;;;;;;;5117117;28;20378;-67
2022/06/10 16:17:49;;;;;;;;;;;;;;;;;;5120917;27;19936;-65
2022/06/10 16:20:15;;;;;;;;;;;;;;;;;;5129311;27;19966;-70
2022/06/10 16:22:41;;;;;;;;;;;;;;;;;;5124077;27;19928;-64
2022/06/10 16:25:07;;;;;;;;;;;;;;;;;;5119982;27;19924;-66
2022/06/10 16:27:33;;;;;;;;;;;;;;;;;;5118656;27;19966;-67
2022/06/10 16:29:59;;;;;;;;;;;;;;;;;;5119393;27;19924;-68
2022/06/10 16:32:25;;;;;;;;;;;;;;;;;;5131918;27;19924;-68
2022/06/10 16:34:51;;;;;;;;;;;;;;;;;;5125514;28;19963;-69
2022/06/10 16:37:17;;;;;;;;;;;;;;;;;;5125742;28;19923;-68
2022/06/10 16:39:43;;;;;;;;;;;;;;;;;;5123639;28;19956;-68
2022/06/10 16:42:09;;;;;;;;;;;;;;;;;;5125638;28;19959;-67
2022/06/10 16:44:35;;;;;;;;;;;;;;;;;;5119729;28;19930;-68
2022/06/10 16:47:02;;;;;;;;;;;;;;;;;;5125188;28;20043;-70
2022/06/10 16:49:28;;;;;;;;;;;;;;;;;;5119879;28;20416;-69
2022/06/10 16:51:54;;;;;;;;;;;;;;;;;;5116425;28;19924;-69
2022/06/10 16:54:20;;;;;;;;;;;;;;;;;;5115311;28;19995;-69
2022/06/10 16:56:46;;;;;;;;;;;;;;;;;;5116095;28;19924;-69
2022/06/10 16:59:12;;;;;;;;;;;;;;;;;;5118974;28;19960;-63
2022/06/10 17:01:38;;;;;;;;;;;;;;;;;;5125817;28;19969;-63
2022/06/10 17:04:04;;;;;;;;;;;;;;;;;;5120403;28;19923;-62
2022/06/10 17:06:30;;;;;;;;;;;;;;;;;;5110757;28;19931;-62
2022/06/10 17:08:56;;;;;;;;;;;;;;;;;;5117251;28;19931;-62
2022/06/10 17:11:22;;;;;;;;;;;;;;;;;;5115716;28;19954;-62
2022/06/10 17:13:48;;;;;;;;;;;;;;;;;;5120984;28;19923;-62
2022/06/10 17:16:14;;;;;;;;;;;;;;;;;;5127693;27;19930;-67
2022/06/10 17:18:40;;;;;;;;;;;;;;;;;;5125403;27;20017;-66
2022/06/10 17:21:06;;;;;;;;;;;;;;;;;;5136952;27;20442;-63
2022/06/10 17:23:32;;;;;;;;;;;;;;;;;;5135668;27;19924;-64
2022/06/10 17:25:58;;;;;;;;;;;;;;;;;;5134416;27;19966;-67